createdAt,value
2018-03-15T00:00:01.812Z,40.00
2018-03-15T00:01:06.631Z,40.70
2018-03-15T00:02:11.721Z,40.10
2018-03-15T00:03:16.666Z,40.00
2018-03-15T00:04:21.640Z,40.10
2018-03-15T00:05:26.672Z,40.00
2018-03-15T00:06:31.701Z,40.10
2018-03-15T00:07:36.552Z,40.10
2018-03-15T00:08:41.389Z,40.00
2018-03-15T00:09:46.266Z,40.00
2018-03-15T00:10:51.363Z,40.00
2018-03-15T00:11:56.199Z,40.00
2018-03-15T00:13:01.869Z,40.00
2018-03-15T00:14:06.787Z,39.90
2018-03-15T00:15:11.721Z,40.00
2018-03-15T00:16:16.642Z,39.90
2018-03-15T00:17:21.684Z,39.90
2018-03-15T00:18:26.773Z,39.90
2018-03-15T00:19:31.745Z,39.90
2018-03-15T00:20:36.596Z,39.90
2018-03-15T00:21:41.519Z,39.80
2018-03-15T00:22:46.360Z,39.80
2018-03-15T00:23:51.325Z,39.80
2018-03-15T00:24:56.251Z,39.80
2018-03-15T00:26:01.256Z,39.80
2018-03-15T00:27:06.239Z,40.40
2018-03-15T00:28:11.238Z,39.80
2018-03-15T00:29:16.260Z,39.80
2018-03-15T00:30:21.841Z,39.80
2018-03-15T00:31:26.836Z,39.70
2018-03-15T00:32:31.718Z,39.70
2018-03-15T00:33:36.596Z,39.70
2018-03-15T00:34:41.596Z,39.80
2018-03-15T00:35:46.496Z,39.70
2018-03-15T00:36:51.545Z,39.70
2018-03-15T00:37:56.442Z,39.70
2018-03-15T00:39:01.384Z,39.70
2018-03-15T00:40:06.365Z,39.70
2018-03-15T00:41:11.257Z,39.70
2018-03-15T00:42:16.222Z,39.70
2018-03-15T00:43:21.347Z,39.70
2018-03-15T00:44:26.205Z,39.70
2018-03-15T00:45:31.246Z,39.70
2018-03-15T00:46:36.166Z,39.70
2018-03-15T00:47:41.025Z,39.70
2018-03-15T00:48:46.046Z,39.70
2018-03-15T00:49:51.130Z,40.00
2018-03-15T00:50:56.177Z,39.60
2018-03-15T00:52:01.299Z,39.70
2018-03-15T00:53:06.391Z,39.60
2018-03-15T00:54:11.287Z,39.70
2018-03-15T00:55:16.334Z,39.60
2018-03-15T00:56:21.871Z,39.60
2018-03-15T00:57:26.931Z,39.60
2018-03-15T00:58:32.000Z,39.60
2018-03-15T00:59:36.901Z,39.60
2018-03-15T01:00:41.816Z,39.60
2018-03-15T01:01:46.676Z,39.60
2018-03-15T01:02:51.672Z,39.60
2018-03-15T01:03:56.564Z,39.50
2018-03-15T01:05:01.569Z,39.50
2018-03-15T01:06:06.554Z,39.50
2018-03-15T01:07:11.529Z,39.50
2018-03-15T01:08:16.486Z,39.40
2018-03-15T01:09:21.435Z,39.40
2018-03-15T01:10:26.388Z,39.30
2018-03-15T01:11:31.414Z,39.30
2018-03-15T01:12:36.348Z,39.30
2018-03-15T01:13:41.344Z,39.40
2018-03-15T01:14:46.388Z,39.30
2018-03-15T01:15:51.405Z,39.40
2018-03-15T01:16:56.296Z,39.30
2018-03-15T01:18:01.273Z,39.30
2018-03-15T01:19:06.118Z,39.30
2018-03-15T01:20:11.088Z,39.30
2018-03-15T01:21:15.998Z,39.30
2018-03-15T01:22:20.945Z,39.20
2018-03-15T01:23:25.797Z,39.20
2018-03-15T01:24:30.759Z,39.30
2018-03-15T01:25:35.765Z,39.20
2018-03-15T01:26:40.724Z,39.20
2018-03-15T01:27:45.602Z,39.20
2018-03-15T01:28:51.068Z,39.20
2018-03-15T01:29:55.964Z,39.10
2018-03-15T01:31:00.843Z,39.20
2018-03-15T01:32:05.761Z,39.10
2018-03-15T01:33:10.637Z,39.10
2018-03-15T01:34:15.717Z,39.10
2018-03-15T01:35:20.748Z,39.10
2018-03-15T01:36:25.904Z,39.10
2018-03-15T01:37:30.836Z,39.10
2018-03-15T01:38:35.814Z,39.20
2018-03-15T01:39:40.793Z,39.10
2018-03-15T01:40:45.786Z,39.10
2018-03-15T01:41:50.805Z,39.10
2018-03-15T01:42:55.888Z,39.10
2018-03-15T01:44:01.754Z,39.10
2018-03-15T01:45:06.822Z,39.10
2018-03-15T01:46:11.721Z,39.00
2018-03-15T01:47:16.715Z,39.00
2018-03-15T01:48:21.661Z,39.00
2018-03-15T01:49:26.714Z,38.90
2018-03-15T01:50:31.704Z,38.90
2018-03-15T01:51:37.190Z,38.90
2018-03-15T01:52:42.026Z,38.90
2018-03-15T01:53:47.234Z,38.80
2018-03-15T01:54:52.266Z,38.80
2018-03-15T01:55:57.171Z,38.90
2018-03-15T01:57:02.080Z,38.90
2018-03-15T01:58:06.972Z,38.90
2018-03-15T01:59:11.980Z,38.90
2018-03-15T02:00:17.021Z,38.90
2018-03-15T02:01:22.003Z,38.90
2018-03-15T02:02:26.924Z,39.00
2018-03-15T02:03:31.916Z,39.00
2018-03-15T02:04:36.863Z,38.90
2018-03-15T02:05:41.914Z,38.80
2018-03-15T02:06:47.430Z,38.80
2018-03-15T02:07:52.315Z,38.80
2018-03-15T02:08:57.142Z,38.80
2018-03-15T02:10:02.170Z,38.80
2018-03-15T02:11:07.165Z,38.80
2018-03-15T02:12:12.288Z,38.80
2018-03-15T02:13:17.124Z,38.80
2018-03-15T02:14:22.187Z,38.80
2018-03-15T02:15:27.118Z,38.70
2018-03-15T02:16:32.239Z,38.80
2018-03-15T02:17:37.116Z,38.70
2018-03-15T02:18:42.142Z,38.80
2018-03-15T02:19:47.053Z,39.40
2018-03-15T02:20:52.105Z,38.70
2018-03-15T02:21:57.200Z,38.80
2018-03-15T02:23:02.102Z,38.60
2018-03-15T02:24:07.078Z,38.70
2018-03-15T02:25:12.037Z,38.50
2018-03-15T02:26:16.925Z,38.50
2018-03-15T02:27:21.829Z,38.60
2018-03-15T02:28:26.650Z,38.50
2018-03-15T02:29:31.594Z,38.40
2018-03-15T02:30:37.218Z,38.50
2018-03-15T02:31:42.150Z,38.40
2018-03-15T02:32:47.031Z,38.40
2018-03-15T02:33:51.885Z,38.40
2018-03-15T02:34:56.857Z,38.30
2018-03-15T02:36:01.914Z,38.20
2018-03-15T02:37:06.739Z,38.20
2018-03-15T02:38:11.660Z,38.20
2018-03-15T02:39:16.600Z,38.10
2018-03-15T02:40:21.591Z,38.10
2018-03-15T02:41:26.451Z,38.10
2018-03-15T02:42:31.257Z,38.10
2018-03-15T02:48:22.003Z,38.10
2018-03-15T02:49:26.824Z,38.10
2018-03-15T02:50:31.564Z,38.10
2018-03-15T02:51:36.289Z,38.10
2018-03-15T02:52:40.957Z,38.10
2018-03-15T02:53:45.760Z,38.10
2018-03-15T02:54:50.522Z,38.20
2018-03-15T02:55:55.430Z,38.10
2018-03-15T02:57:00.272Z,38.20
2018-03-15T02:58:05.042Z,38.10
2018-03-15T02:59:09.892Z,38.00
2018-03-15T03:00:14.666Z,38.00
2018-03-15T03:01:19.446Z,37.90
2018-03-15T03:02:24.286Z,38.00
2018-03-15T03:03:29.053Z,38.00
2018-03-15T03:04:33.767Z,38.10
2018-03-15T03:05:38.531Z,38.00
2018-03-15T03:06:43.265Z,37.90
2018-03-15T03:07:48.102Z,37.80
2018-03-15T03:08:52.970Z,37.90
2018-03-15T03:09:57.911Z,37.90
2018-03-15T03:11:02.812Z,37.90
2018-03-15T03:12:07.511Z,37.80
2018-03-15T03:13:12.364Z,37.80
2018-03-15T03:14:17.174Z,37.70
2018-03-15T03:15:22.083Z,37.80
2018-03-15T03:16:26.976Z,37.90
2018-03-15T03:17:31.894Z,37.90
2018-03-15T03:18:36.650Z,37.80
2018-03-15T03:19:41.571Z,37.80
2018-03-15T03:20:46.340Z,37.80
2018-03-15T03:21:51.139Z,37.80
2018-03-15T03:22:55.971Z,37.70
2018-03-15T03:24:00.773Z,37.70
2018-03-15T03:25:05.468Z,37.80
2018-03-15T03:26:10.340Z,37.80
2018-03-15T03:27:15.151Z,37.80
2018-03-15T03:28:20.086Z,37.80
2018-03-15T03:29:24.872Z,37.70
2018-03-15T03:30:29.668Z,37.60
2018-03-15T03:31:34.398Z,37.70
2018-03-15T03:32:39.218Z,37.60
2018-03-15T03:33:43.930Z,37.50
2018-03-15T03:34:48.668Z,37.60
2018-03-15T03:35:53.481Z,37.50
2018-03-15T03:36:58.379Z,37.60
2018-03-15T03:38:03.289Z,37.60
2018-03-15T03:39:08.023Z,37.50
2018-03-15T03:40:13.381Z,37.60
2018-03-15T03:41:18.207Z,37.50
2018-03-15T03:42:22.980Z,37.50
2018-03-15T03:43:27.787Z,37.50
2018-03-15T03:44:32.571Z,37.40
2018-03-15T03:45:37.327Z,37.50
2018-03-15T03:46:42.010Z,37.40
2018-03-15T03:47:46.736Z,37.50
2018-03-15T03:48:51.620Z,37.50
2018-03-15T03:49:56.356Z,37.60
2018-03-15T03:51:01.225Z,37.60
2018-03-15T03:52:05.977Z,37.40
2018-03-15T03:53:10.769Z,37.40
2018-03-15T03:54:15.440Z,37.50
2018-03-15T03:55:20.218Z,37.50
2018-03-15T03:56:24.977Z,37.40
2018-03-15T03:57:29.719Z,37.40
2018-03-15T03:58:34.552Z,37.30
2018-03-15T03:59:39.434Z,37.30
2018-03-15T04:00:44.299Z,37.30
2018-03-15T04:01:49.275Z,37.30
2018-03-15T04:02:54.204Z,37.30
2018-03-15T04:03:58.976Z,37.30
2018-03-15T04:05:04.511Z,37.30
2018-03-15T04:06:09.437Z,37.30
2018-03-15T04:07:14.258Z,37.20
2018-03-15T04:08:19.120Z,37.10
2018-03-15T04:09:23.912Z,37.10
2018-03-15T04:10:28.666Z,37.00
2018-03-15T04:11:33.399Z,37.00
2018-03-15T04:12:38.270Z,37.00
2018-03-15T04:13:43.098Z,37.00
2018-03-15T04:14:47.861Z,37.00
2018-03-15T04:15:52.650Z,37.10
2018-03-15T04:16:57.514Z,37.20
2018-03-15T04:18:02.363Z,37.10
2018-03-15T04:19:07.079Z,37.10
2018-03-15T04:20:11.887Z,37.20
2018-03-15T04:21:16.708Z,37.10
2018-03-15T04:22:21.633Z,37.20
2018-03-15T04:23:26.418Z,37.10
2018-03-15T04:24:31.272Z,37.00
2018-03-15T04:25:36.170Z,36.90
2018-03-15T04:26:41.042Z,37.00
2018-03-15T04:27:46.478Z,37.00
2018-03-15T04:28:51.331Z,37.00
2018-03-15T04:29:56.205Z,37.00
2018-03-15T04:31:01.013Z,36.90
2018-03-15T04:32:05.730Z,36.80
2018-03-15T04:33:10.567Z,36.80
2018-03-15T04:34:15.417Z,36.80
2018-03-15T04:35:20.228Z,36.80
2018-03-15T04:36:25.129Z,36.80
2018-03-15T04:37:30.290Z,36.80
2018-03-15T04:38:35.192Z,37.50
2018-03-15T04:39:40.044Z,36.80
2018-03-15T04:40:44.876Z,36.90
2018-03-15T04:41:49.928Z,36.80
2018-03-15T04:42:54.881Z,36.70
2018-03-15T04:43:59.582Z,36.70
2018-03-15T04:45:04.479Z,36.70
2018-03-15T04:46:09.471Z,36.70
2018-03-15T04:47:14.454Z,36.70
2018-03-15T04:48:19.174Z,36.80
2018-03-15T04:49:24.122Z,36.70
2018-03-15T04:50:28.851Z,36.60
2018-03-15T04:51:33.600Z,36.70
2018-03-15T04:52:38.450Z,36.70
2018-03-15T04:53:43.310Z,36.70
2018-03-15T04:54:48.022Z,36.60
2018-03-15T04:55:52.940Z,36.70
2018-03-15T04:56:57.886Z,36.60
2018-03-15T04:58:02.720Z,36.60
2018-03-15T04:59:07.524Z,36.60
2018-03-15T05:00:12.337Z,36.60
2018-03-15T05:01:17.693Z,36.50
2018-03-15T05:02:22.435Z,36.50
2018-03-15T05:03:27.162Z,36.50
2018-03-15T05:04:31.941Z,36.50
2018-03-15T05:05:36.777Z,36.60
2018-03-15T05:06:41.577Z,36.50
2018-03-15T05:07:46.445Z,36.60
2018-03-15T05:08:51.326Z,36.50
2018-03-15T05:09:56.044Z,36.60
2018-03-15T05:11:00.964Z,36.50
2018-03-15T05:12:05.682Z,36.50
2018-03-15T05:13:10.381Z,36.50
2018-03-15T05:14:15.224Z,36.60
2018-03-15T05:15:19.988Z,36.50
2018-03-15T05:16:24.925Z,36.50
2018-03-15T05:17:29.673Z,36.50
2018-03-15T05:18:34.549Z,36.50
2018-03-15T05:19:39.379Z,36.40
2018-03-15T05:20:44.257Z,36.40
2018-03-15T05:21:49.057Z,36.50
2018-03-15T05:22:53.974Z,36.40
2018-03-15T05:23:58.699Z,36.40
2018-03-15T05:25:03.588Z,36.40
2018-03-15T05:26:08.344Z,36.30
2018-03-15T05:27:13.153Z,36.30
2018-03-15T05:28:17.932Z,36.30
2018-03-15T05:29:22.670Z,36.40
2018-03-15T05:30:27.529Z,36.40
2018-03-15T05:31:32.419Z,36.40
2018-03-15T05:32:37.266Z,36.50
2018-03-15T05:33:42.742Z,36.50
2018-03-15T05:34:47.501Z,36.50
2018-03-15T05:35:52.369Z,36.40
2018-03-15T05:36:57.251Z,36.50
2018-03-15T05:38:02.908Z,36.40
2018-03-15T05:39:07.704Z,36.50
2018-03-15T05:40:13.152Z,36.50
2018-03-15T05:41:17.996Z,36.50
2018-03-15T05:42:22.684Z,36.30
2018-03-15T05:43:27.650Z,36.40
2018-03-15T05:44:32.548Z,36.40
2018-03-15T05:45:37.289Z,36.40
2018-03-15T05:46:42.260Z,36.50
2018-03-15T05:47:46.957Z,36.60
2018-03-15T05:48:51.721Z,36.60
2018-03-15T05:49:56.498Z,36.60
2018-03-15T05:51:01.452Z,36.70
2018-03-15T05:52:06.851Z,36.60
2018-03-15T05:53:11.705Z,36.70
2018-03-15T05:54:16.641Z,36.80
2018-03-15T05:55:21.385Z,36.80
2018-03-15T05:56:26.348Z,37.60
2018-03-15T05:57:31.287Z,37.00
2018-03-15T05:58:36.146Z,37.10
2018-03-15T05:59:41.043Z,37.10
2018-03-15T06:00:46.122Z,37.10
2018-03-15T06:01:51.099Z,37.20
2018-03-15T06:02:55.971Z,37.20
2018-03-15T06:04:00.903Z,37.20
2018-03-15T06:05:05.655Z,37.30
2018-03-15T06:06:10.444Z,37.30
2018-03-15T06:07:15.198Z,37.50
2018-03-15T06:08:20.440Z,37.40
2018-03-15T06:09:25.243Z,37.50
2018-03-15T06:10:30.145Z,37.60
2018-03-15T06:11:35.311Z,37.70
2018-03-15T06:12:40.088Z,37.80
2018-03-15T06:13:44.944Z,37.80
2018-03-15T06:14:49.743Z,37.90
2018-03-15T06:15:54.523Z,38.00
2018-03-15T06:16:59.309Z,38.10
2018-03-15T06:18:04.078Z,38.10
2018-03-15T06:19:08.895Z,38.10
2018-03-15T06:20:13.677Z,38.20
2018-03-15T06:21:18.427Z,38.40
2018-03-15T06:22:23.348Z,38.30
2018-03-15T06:23:28.184Z,38.30
2018-03-15T06:24:33.811Z,38.40
2018-03-15T06:25:39.245Z,38.60
2018-03-15T06:26:44.537Z,38.70
2018-03-15T06:27:49.563Z,38.90
2018-03-15T06:28:54.547Z,38.80
2018-03-15T06:29:59.320Z,38.70
2018-03-15T06:31:04.129Z,38.80
2018-03-15T06:32:08.858Z,38.80
2018-03-15T06:33:13.735Z,39.00
2018-03-15T06:34:18.649Z,39.00
2018-03-15T06:35:23.804Z,39.10
2018-03-15T06:36:28.667Z,39.20
2018-03-15T06:37:33.774Z,39.20
2018-03-15T06:38:38.708Z,39.20
2018-03-15T06:39:43.651Z,39.30
2018-03-15T06:40:48.629Z,39.60
2018-03-15T06:41:53.583Z,39.90
2018-03-15T06:42:58.579Z,40.10
2018-03-15T06:44:03.351Z,40.30
2018-03-15T06:45:09.360Z,40.50
2018-03-15T06:46:16.027Z,40.50
2018-03-15T06:47:21.578Z,40.70
2018-03-15T06:48:26.565Z,40.80
2018-03-15T06:49:32.268Z,40.60
2018-03-15T06:50:37.263Z,40.50
2018-03-15T06:51:42.187Z,40.70
2018-03-15T06:52:47.205Z,40.80
2018-03-15T06:53:52.119Z,41.00
2018-03-15T06:54:57.184Z,41.00
2018-03-15T06:56:02.043Z,41.10
2018-03-15T06:57:06.861Z,41.10
2018-03-15T06:58:11.718Z,41.20
2018-03-15T06:59:16.637Z,41.20
2018-03-15T07:00:21.682Z,41.30
2018-03-15T07:01:26.569Z,41.70
2018-03-15T07:02:31.553Z,41.60
2018-03-15T07:03:36.467Z,41.20
2018-03-15T07:04:41.350Z,41.30
2018-03-15T07:05:46.373Z,41.50
2018-03-15T07:06:51.302Z,41.50
2018-03-15T07:07:56.229Z,41.50
2018-03-15T07:09:01.313Z,41.50
2018-03-15T07:10:06.238Z,41.50
2018-03-15T07:11:11.086Z,41.40
2018-03-15T07:12:16.226Z,41.40
2018-03-15T07:13:21.673Z,41.40
2018-03-15T07:14:26.590Z,41.50
2018-03-15T07:15:31.389Z,41.60
2018-03-15T07:16:36.361Z,41.60
2018-03-15T07:17:41.194Z,41.70
2018-03-15T07:18:46.084Z,41.70
2018-03-15T07:19:50.935Z,41.70
2018-03-15T07:20:55.782Z,41.80
2018-03-15T07:22:01.474Z,41.80
2018-03-15T07:23:06.485Z,41.80
2018-03-15T07:24:11.441Z,41.90
2018-03-15T07:25:16.484Z,41.90
2018-03-15T07:26:21.321Z,41.80
2018-03-15T07:27:26.244Z,41.80
2018-03-15T07:28:31.046Z,41.60
2018-03-15T07:29:36.923Z,41.50
2018-03-15T07:30:41.695Z,41.40
2018-03-15T07:31:46.595Z,41.40
2018-03-15T07:32:51.483Z,41.40
2018-03-15T07:33:56.288Z,41.30
2018-03-15T07:35:01.108Z,41.30
2018-03-15T07:36:05.980Z,41.20
2018-03-15T07:37:10.776Z,41.10
2018-03-15T07:38:15.752Z,41.10
2018-03-15T07:39:20.706Z,41.10
2018-03-15T07:40:25.530Z,41.10
2018-03-15T07:41:30.418Z,41.10
2018-03-15T07:42:35.351Z,41.10
2018-03-15T07:43:40.144Z,41.70
2018-03-15T07:44:45.029Z,41.10
2018-03-15T07:45:50.509Z,41.00
2018-03-15T07:46:55.296Z,41.10
2018-03-15T07:48:00.060Z,41.10
2018-03-15T07:49:04.955Z,41.20
2018-03-15T07:50:09.707Z,41.30
2018-03-15T07:51:14.439Z,41.30
2018-03-15T07:52:19.349Z,41.30
2018-03-15T07:53:24.208Z,41.30
2018-03-15T07:54:29.105Z,41.30
2018-03-15T07:55:33.946Z,41.30
2018-03-15T07:56:39.354Z,41.30
2018-03-15T07:57:44.173Z,41.30
2018-03-15T07:58:48.987Z,41.30
2018-03-15T07:59:53.808Z,41.20
2018-03-15T08:00:58.589Z,41.20
2018-03-15T08:02:03.631Z,41.20
2018-03-15T08:03:08.781Z,41.20
2018-03-15T08:04:13.963Z,41.20
2018-03-15T08:05:18.806Z,41.10
2018-03-15T08:06:23.592Z,41.10
2018-03-15T08:07:28.887Z,41.10
2018-03-15T08:08:34.432Z,41.10
2018-03-15T08:09:39.219Z,41.10
2018-03-15T08:10:44.665Z,41.20
2018-03-15T08:11:49.481Z,41.20
2018-03-15T08:12:54.364Z,41.20
2018-03-15T08:13:59.205Z,41.20
2018-03-15T08:15:04.130Z,41.30
2018-03-15T08:16:09.021Z,41.30
2018-03-15T08:17:13.724Z,41.40
2018-03-15T08:18:18.575Z,41.40
2018-03-15T08:19:23.361Z,41.40
2018-03-15T08:20:28.120Z,41.50
2018-03-15T08:21:33.014Z,42.20
2018-03-15T08:22:38.431Z,41.50
2018-03-15T08:23:43.200Z,41.50
2018-03-15T08:24:48.030Z,41.50
2018-03-15T08:25:53.013Z,41.50
2018-03-15T08:26:57.945Z,41.50
2018-03-15T08:28:02.912Z,41.60
2018-03-15T08:29:08.416Z,41.50
2018-03-15T08:30:13.354Z,41.50
2018-03-15T08:31:18.236Z,41.60
2018-03-15T08:32:23.107Z,41.60
2018-03-15T08:33:28.051Z,41.60
2018-03-15T08:34:32.926Z,41.60
2018-03-15T08:35:37.864Z,41.60
2018-03-15T08:36:42.815Z,41.60
2018-03-15T08:37:47.737Z,41.60
2018-03-15T08:38:52.557Z,41.60
2018-03-15T08:39:57.330Z,41.60
2018-03-15T08:41:02.285Z,41.70
2018-03-15T08:42:07.131Z,41.60
2018-03-15T08:43:12.049Z,41.60
2018-03-15T08:44:16.890Z,41.70
2018-03-15T08:45:21.674Z,41.70
2018-03-15T08:46:27.095Z,41.70
2018-03-15T08:47:31.958Z,41.70
2018-03-15T08:48:36.843Z,41.70
2018-03-15T08:49:41.769Z,41.70
2018-03-15T08:50:46.625Z,41.70
2018-03-15T08:51:51.396Z,41.70
2018-03-15T08:52:56.183Z,42.40
2018-03-15T08:54:02.081Z,41.70
2018-03-15T08:55:06.947Z,41.80
2018-03-15T08:56:11.712Z,41.70
2018-03-15T08:57:16.444Z,41.80
2018-03-15T08:58:21.375Z,41.80
2018-03-15T08:59:26.264Z,41.80
2018-03-15T09:00:31.051Z,41.80
2018-03-15T09:01:35.762Z,41.80
2018-03-15T09:02:41.172Z,41.90
2018-03-15T09:03:46.534Z,41.90
2018-03-15T09:04:51.525Z,41.90
2018-03-15T09:05:56.337Z,41.90
2018-03-15T09:07:01.065Z,42.00
2018-03-15T09:08:05.828Z,42.10
2018-03-15T09:09:11.361Z,42.00
2018-03-15T09:10:16.096Z,42.00
2018-03-15T09:11:21.063Z,42.00
2018-03-15T09:12:25.957Z,42.00
2018-03-15T09:13:30.816Z,42.00
2018-03-15T09:14:36.604Z,42.00
2018-03-15T09:15:41.922Z,42.10
2018-03-15T09:16:46.819Z,42.10
2018-03-15T09:17:51.758Z,42.10
2018-03-15T09:18:56.643Z,42.20
2018-03-15T09:20:01.560Z,42.20
2018-03-15T09:21:06.321Z,42.20
2018-03-15T09:22:11.081Z,42.90
2018-03-15T09:23:15.789Z,42.20
2018-03-15T09:24:20.557Z,42.30
2018-03-15T09:25:25.424Z,42.30
2018-03-15T09:26:30.229Z,42.30
2018-03-15T09:27:35.153Z,42.40
2018-03-15T09:28:40.172Z,42.40
2018-03-15T09:29:45.085Z,42.40
2018-03-15T09:30:49.827Z,42.40
2018-03-15T09:31:54.612Z,42.50
2018-03-15T09:33:00.071Z,42.50
2018-03-15T09:34:04.871Z,42.50
2018-03-15T09:35:09.891Z,42.50
2018-03-15T09:36:14.804Z,42.60
2018-03-15T09:37:19.721Z,42.60
2018-03-15T09:38:24.622Z,42.60
2018-03-15T09:39:29.417Z,42.70
2018-03-15T09:40:34.318Z,42.60
2018-03-15T09:41:39.198Z,42.70
2018-03-15T09:42:44.056Z,42.70
2018-03-15T09:43:48.982Z,42.70
2018-03-15T09:44:53.985Z,42.70
2018-03-15T09:45:59.505Z,42.70
2018-03-15T09:47:04.942Z,42.70
2018-03-15T09:48:09.768Z,42.80
2018-03-15T09:49:14.545Z,42.80
2018-03-15T09:50:19.478Z,42.90
2018-03-15T09:51:24.508Z,42.90
2018-03-15T09:52:29.335Z,42.90
2018-03-15T09:53:34.136Z,42.90
2018-03-15T09:54:38.862Z,42.90
2018-03-15T09:55:44.261Z,43.00
2018-03-15T09:56:49.228Z,42.90
2018-03-15T09:57:55.342Z,43.00
2018-03-15T09:59:00.195Z,43.00
2018-03-15T10:00:05.092Z,43.00
2018-03-15T10:01:10.068Z,43.10
2018-03-15T10:02:17.288Z,43.10
2018-03-15T10:03:22.951Z,43.10
2018-03-15T10:04:27.854Z,43.10
2018-03-15T10:05:33.413Z,43.10
2018-03-15T10:06:38.335Z,43.20
2018-03-15T10:07:43.274Z,43.20
2018-03-15T10:08:48.034Z,43.20
2018-03-15T10:09:52.913Z,43.20
2018-03-15T10:10:58.346Z,43.20
2018-03-15T10:12:03.284Z,43.30
2018-03-15T10:13:08.691Z,43.30
2018-03-15T10:14:13.658Z,43.30
2018-03-15T10:15:18.598Z,43.30
2018-03-15T10:16:23.359Z,44.00
2018-03-15T10:17:28.109Z,43.40
2018-03-15T10:18:33.012Z,43.40
2018-03-15T10:19:37.961Z,43.50
2018-03-15T10:20:42.877Z,43.50
2018-03-15T10:21:48.353Z,43.80
2018-03-15T10:22:53.081Z,43.40
2018-03-15T10:23:58.217Z,43.60
2018-03-15T10:25:13.606Z,43.60
2018-03-15T10:26:07.915Z,43.50
2018-03-15T10:27:12.888Z,43.70
2018-03-15T10:28:18.622Z,43.60
2018-03-15T10:29:23.582Z,43.70
2018-03-15T10:30:28.463Z,43.70
2018-03-15T10:31:33.255Z,43.60
2018-03-15T10:32:38.037Z,43.60
2018-03-15T10:33:42.824Z,43.70
2018-03-15T10:34:48.316Z,44.40
2018-03-15T10:35:53.147Z,43.70
2018-03-15T10:36:58.055Z,43.70
2018-03-15T10:38:02.810Z,43.80
2018-03-15T10:39:07.702Z,43.70
2018-03-15T10:40:12.465Z,43.80
2018-03-15T10:41:17.254Z,43.80
2018-03-15T10:42:22.563Z,43.80
2018-03-15T10:43:28.420Z,43.80
2018-03-15T10:44:33.161Z,43.90
2018-03-15T10:45:38.087Z,43.80
2018-03-15T10:46:42.969Z,43.80
2018-03-15T10:47:47.862Z,43.80
2018-03-15T10:48:53.475Z,43.80
2018-03-15T10:49:58.242Z,43.90
2018-03-15T10:51:03.031Z,43.90
2018-03-15T10:52:08.084Z,43.90
2018-03-15T10:53:12.896Z,43.90
2018-03-15T10:54:17.790Z,43.90
2018-03-15T10:55:22.790Z,43.90
2018-03-15T10:56:27.627Z,43.90
2018-03-15T10:57:32.387Z,43.90
2018-03-15T10:58:37.335Z,43.90
2018-03-15T10:59:42.169Z,43.90
2018-03-15T11:00:46.947Z,44.00
2018-03-15T11:01:52.560Z,44.00
2018-03-15T11:02:57.957Z,44.00
2018-03-15T11:04:02.840Z,44.00
2018-03-15T11:05:08.447Z,44.00
2018-03-15T11:06:13.303Z,44.00
2018-03-15T11:07:18.793Z,44.00
2018-03-15T11:08:23.792Z,44.00
2018-03-15T11:09:28.702Z,44.10
2018-03-15T11:10:33.544Z,44.10
2018-03-15T11:11:38.460Z,44.10
2018-03-15T11:12:44.146Z,44.10
2018-03-15T11:13:49.122Z,44.10
2018-03-15T11:14:53.941Z,44.30
2018-03-15T11:15:58.744Z,44.10
2018-03-15T11:17:03.781Z,44.20
2018-03-15T11:18:08.701Z,44.10
2018-03-15T11:19:13.666Z,44.10
2018-03-15T11:20:19.081Z,44.20
2018-03-15T11:21:23.917Z,44.20
2018-03-15T11:22:28.701Z,44.20
2018-03-15T11:23:33.594Z,44.30
2018-03-15T11:24:38.299Z,44.20
2018-03-15T11:25:44.057Z,44.20
2018-03-15T11:26:48.834Z,44.20
2018-03-15T11:27:53.625Z,44.30
2018-03-15T11:28:58.428Z,44.30
2018-03-15T11:30:03.333Z,44.30
2018-03-15T11:31:08.245Z,44.30
2018-03-15T11:32:12.980Z,44.30
2018-03-15T11:33:17.710Z,44.30
2018-03-15T11:34:22.594Z,44.30
2018-03-15T11:35:27.453Z,44.30
2018-03-15T11:36:32.286Z,44.30
2018-03-15T11:37:37.749Z,44.30
2018-03-15T11:38:43.242Z,44.40
2018-03-15T11:39:48.172Z,44.40
2018-03-15T11:40:53.181Z,44.40
2018-03-15T11:41:58.060Z,44.40
2018-03-15T11:43:02.951Z,44.40
2018-03-15T11:44:07.732Z,44.40
2018-03-15T11:45:12.508Z,44.40
2018-03-15T11:46:17.405Z,44.50
2018-03-15T11:47:22.149Z,44.40
2018-03-15T11:48:27.332Z,44.50
2018-03-15T11:49:32.801Z,44.50
2018-03-15T11:50:37.665Z,44.40
2018-03-15T11:51:42.511Z,44.50
2018-03-15T11:52:47.275Z,44.40
2018-03-15T11:53:52.032Z,44.50
2018-03-15T11:54:56.941Z,44.50
2018-03-15T11:56:01.670Z,44.50
2018-03-15T11:57:06.431Z,44.50
2018-03-15T11:58:11.221Z,44.50
2018-03-15T11:59:16.012Z,44.50
2018-03-15T12:00:20.831Z,44.50
2018-03-15T12:01:25.591Z,44.50
2018-03-15T12:02:30.533Z,44.50
2018-03-15T12:03:35.337Z,44.50
2018-03-15T12:04:40.109Z,44.60
2018-03-15T12:05:44.900Z,44.60
2018-03-15T12:06:49.731Z,44.60
2018-03-15T12:07:55.285Z,44.60
2018-03-15T12:09:00.093Z,44.60
2018-03-15T12:10:04.914Z,44.60
2018-03-15T12:11:10.450Z,44.60
2018-03-15T12:12:15.216Z,44.60
2018-03-15T12:13:19.966Z,44.60
2018-03-15T12:14:24.830Z,44.60
2018-03-15T12:15:29.578Z,44.60
2018-03-15T12:16:34.471Z,44.60
2018-03-15T12:17:39.336Z,44.70
2018-03-15T12:18:44.140Z,44.60
2018-03-15T12:19:49.027Z,44.60
2018-03-15T12:20:53.876Z,44.60
2018-03-15T12:21:58.801Z,44.60
2018-03-15T12:23:03.608Z,44.60
2018-03-15T12:24:08.446Z,44.60
2018-03-15T12:25:13.329Z,44.70
2018-03-15T12:26:18.241Z,44.70
2018-03-15T12:27:23.061Z,44.60
2018-03-15T12:28:27.911Z,44.20
2018-03-15T12:29:33.331Z,44.10
2018-03-15T12:30:38.195Z,44.00
2018-03-15T12:31:43.053Z,44.10
2018-03-15T12:32:47.968Z,44.20
2018-03-15T12:33:52.721Z,44.30
2018-03-15T12:34:58.056Z,44.30
2018-03-15T12:36:02.944Z,44.30
2018-03-15T12:37:07.827Z,44.30
2018-03-15T12:38:12.632Z,44.30
2018-03-15T12:39:17.475Z,44.30
2018-03-15T12:40:22.281Z,44.40
2018-03-15T12:41:27.732Z,44.50
2018-03-15T12:42:32.541Z,44.50
2018-03-15T12:43:37.338Z,44.50
2018-03-15T12:44:42.355Z,44.40
2018-03-15T12:45:47.273Z,44.50
2018-03-15T12:46:52.625Z,44.50
2018-03-15T12:47:57.501Z,44.50
2018-03-15T12:49:02.363Z,44.50
2018-03-15T12:50:07.227Z,44.50
2018-03-15T12:51:12.019Z,44.60
2018-03-15T12:52:16.917Z,44.60
2018-03-15T12:53:21.740Z,44.70
2018-03-15T12:54:26.533Z,44.60
2018-03-15T12:55:32.050Z,44.60
2018-03-15T12:56:36.851Z,44.70
2018-03-15T12:57:41.712Z,44.60
2018-03-15T12:58:46.592Z,44.70
2018-03-15T12:59:51.515Z,44.60
2018-03-15T13:00:56.354Z,44.60
2018-03-15T13:02:01.185Z,44.70
2018-03-15T13:03:06.107Z,44.70
2018-03-15T13:04:10.958Z,44.70
2018-03-15T13:05:16.731Z,44.70
2018-03-15T13:06:22.520Z,44.70
2018-03-15T13:07:27.599Z,44.70
2018-03-15T13:08:32.371Z,44.70
2018-03-15T13:09:37.261Z,44.70
2018-03-15T13:10:42.225Z,44.70
2018-03-15T13:11:47.018Z,44.80
2018-03-15T13:12:51.926Z,44.80
2018-03-15T13:13:57.400Z,44.70
2018-03-15T13:15:02.363Z,45.40
2018-03-15T13:16:07.525Z,44.80
2018-03-15T13:17:12.459Z,44.80
2018-03-15T13:18:17.272Z,44.80
2018-03-15T13:19:22.142Z,44.80
2018-03-15T13:20:27.009Z,44.80
2018-03-15T13:21:31.935Z,44.80
2018-03-15T13:22:37.323Z,44.80
2018-03-15T13:23:43.248Z,44.80
2018-03-15T13:24:48.698Z,45.50
2018-03-15T13:25:53.535Z,44.90
2018-03-15T13:26:58.558Z,44.90
2018-03-15T13:28:03.268Z,44.80
2018-03-15T13:29:08.139Z,44.80
2018-03-15T13:30:13.094Z,44.90
2018-03-15T13:31:17.940Z,44.90
2018-03-15T13:32:22.817Z,44.90
2018-03-15T13:33:27.763Z,44.90
2018-03-15T13:34:32.706Z,44.90
2018-03-15T13:35:37.734Z,44.90
2018-03-15T13:36:42.502Z,44.90
2018-03-15T13:37:47.287Z,44.90
2018-03-15T13:38:52.221Z,44.90
2018-03-15T13:39:57.136Z,44.90
2018-03-15T13:41:01.983Z,44.90
2018-03-15T13:42:06.975Z,44.90
2018-03-15T13:43:12.559Z,45.00
2018-03-15T13:44:17.540Z,45.00
2018-03-15T13:45:22.306Z,44.90
2018-03-15T13:46:27.155Z,44.90
2018-03-15T13:47:32.133Z,45.00
2018-03-15T13:48:37.034Z,45.00
2018-03-15T13:49:42.845Z,45.00
2018-03-15T13:50:48.003Z,44.90
2018-03-15T13:51:53.110Z,44.90
2018-03-15T13:52:58.091Z,45.00
2018-03-15T13:54:02.962Z,44.90
2018-03-15T13:55:07.733Z,45.00
2018-03-15T13:56:12.583Z,44.90
2018-03-15T13:57:17.508Z,45.00
2018-03-15T13:58:22.384Z,45.00
2018-03-15T13:59:27.235Z,45.00
2018-03-15T14:00:32.184Z,45.00